Tor Futura — OZZE2 — position and weather

sailwx.info

Track history (hours):
 
Tides and Currents Weather Stations Pressure Air Temp Water Temp Dewpoint Dewpoint Depression Visibility Wind Speed Wind Dir Waves Ship Positions

Tor Futura

Last reported at 2014-Oct-01 09:32 UTC. Time now 2014-Oct-01 10:21 UTC.
Position N 43°19' E 005°22'.

Length 183.1 m; beam 25.2 m; draft 7.8 m.

Type: Cargo ship. MMSI: 219927000.

Date/timePositionNaut miles runAvg speedWind from/ knotsBaromVisibWave heightAir tempDewpointWater temp
2014-Oct-01 09:32N 43°19' E 005°22'0 0.0
2014-Oct-01 08:26N 43°19' E 005°22'0 0.0
2014-Oct-01 07:05N 43°19' E 005°22'0 0.2
2014-Oct-01 06:31N 43°19' E 005°21'2 2.1
2014-Oct-01 05:33N 43°19' E 005°19'1111.4
2014-Oct-01 04:33N 43°08' E 005°16'1413.5
2014-Oct-01 03:33N 42°55' E 005°23'1414.4
2014-Oct-01 02:33N 42°43' E 005°32'1514.2
2014-Oct-01 01:32N 42°30' E 005°42'26814.6
2014-Sep-30 07:08N 38°39' E 008°41'914.8
2014-Sep-30 06:33N 38°33' E 008°50'23 0.7
2014-Sep-28 19:29N 38°15' E 009°07'2512.2
2014-Sep-28 17:26N 38°32' E 008°44'1212.4
2014-Sep-28 16:29N 38°41' E 008°34'1212.5
2014-Sep-28 15:32N 38°49' E 008°23'1212.1
2014-Sep-28 14:31N 38°60' E 008°15'1712.6
2014-Sep-28 13:10N 39°15' E 008°04'812.3
2014-Sep-28 12:31N 39°22' E 007°59'1312.4
2014-Sep-28 11:28N 39°33' E 007°51'12313.5
2014-Sep-28 02:21N 41°21' E 006°33'4012.8
2014-Sep-27 23:16N 41°56' E 006°07'1113.0
2014-Sep-27 22:26N 42°05' E 005°60'1112.7
2014-Sep-27 21:33N 42°15' E 005°52'1312.6
2014-Sep-27 20:33N 42°26' E 005°44'1313.2
2014-Sep-27 19:33N 42°37' E 005°35'1212.4
2014-Sep-27 18:33N 42°48' E 005°27'1512.5
2014-Sep-27 17:22N 43°01' E 005°17'1012.0
2014-Sep-27 16:30N 43°10' E 005°10'1010.5
2014-Sep-27 15:33N 43°20' E 005°15'5 4.7
2014-Sep-27 14:32N 43°19' E 005°22'0 0.0
2014-Sep-27 13:33N 43°19' E 005°22'0 0.0
2014-Sep-27 12:33N 43°19' E 005°22'0 0.0
2014-Sep-27 11:21N 43°19' E 005°22'0 0.0
2014-Sep-27 10:09N 43°19' E 005°22'0 0.0
2014-Sep-27 09:23N 43°19' E 005°22'0 0.0
2014-Sep-27 08:26N 43°19' E 005°22'0 0.0
2014-Sep-27 07:27N 43°19' E 005°22'0 0.0
2014-Sep-27 06:29N 43°19' E 005°22'0 0.0
2014-Sep-27 05:29N 43°19' E 005°22'1 0.7
2014-Sep-27 04:33N 43°20' E 005°21'9 9.4
2014-Sep-27 03:33N 43°14' E 005°11'1915.0
2014-Sep-27 02:16N 42°57' E 005°22'1115.4
2014-Sep-27 01:33N 42°47' E 005°30'1515.3
2014-Sep-27 00:33N 42°34' E 005°41'1514.8
2014-Sep-26 23:33N 42°21' E 005°49'1515.1
2014-Sep-26 22:33N 42°07' E 005°59'1515.2
2014-Sep-26 21:33N 41°54' E 006°09'15915.8
2014-Sep-26 11:30N 39°35' E 007°50'3515.5
2014-Sep-26 09:14N 39°04' E 008°12'1815.5
2014-Sep-26 08:03N 38°49' E 008°25'1215.0
2014-Sep-26 07:14N 38°41' E 008°37'63 1.7
2014-Sep-24 17:32N 37°55' E 009°33'1616.2
2014-Sep-24 16:33N 38°07' E 009°18'1616.1
2014-Sep-24 15:33N 38°18' E 009°04'2216.0
2014-Sep-24 14:10N 38°33' E 008°44'1115.9
2014-Sep-24 13:29N 38°41' E 008°34'2116.0
2014-Sep-24 12:12N 38°57' E 008°17'1116.1
2014-Sep-24 11:30N 39°07' E 008°10'1516.1
2014-Sep-24 10:33N 39°20' E 008°01'21916.3
2014-Sep-23 21:07N 42°31' E 005°40'1016.4
2014-Sep-23 20:33N 42°41' E 005°38'1615.8
2014-Sep-23 19:33N 42°52' E 005°24'2015.9
2014-Sep-23 18:17N 43°10' E 005°10'1013.9
2014-Sep-23 17:33N 43°20' E 005°15'5 0.6
2014-Sep-23 10:06N 43°19' E 005°22'0 0.0
2014-Sep-23 06:24N 43°19' E 005°22'0 0.0
2014-Sep-23 05:24N 43°19' E 005°22'0 0.0
2014-Sep-23 03:12N 43°19' E 005°22'0 0.0
2014-Sep-23 02:24N 43°19' E 005°22'0 0.0
2014-Sep-23 01:12N 43°19' E 005°22'0 0.0
2014-Sep-22 23:30N 43°19' E 005°22'0 0.0
2014-Sep-22 22:30N 43°19' E 005°22'0 0.0
2014-Sep-22 20:06N 43°19' E 005°22'0 0.0
2014-Sep-22 19:18N 43°19' E 005°22'0 0.0
2014-Sep-22 13:12N 43°19' E 005°22'0 0.0
2014-Sep-22 11:12N 43°19' E 005°22'0 0.0
2014-Sep-22 10:30N 43°19' E 005°22'0 0.0
2014-Sep-22 09:18N 43°19' E 005°22'0 0.0
2014-Sep-22 08:30N 43°19' E 005°22'0 0.0
2014-Sep-22 07:06N 43°19' E 005°22'0 0.1
2014-Sep-22 06:33N 43°19' E 005°22'4 4.2
2014-Sep-22 05:33N 43°19' E 005°16'1212.0
2014-Sep-22 04:32N 43°07' E 005°14'1515.1
2014-Sep-22 03:33N 42°54' E 005°24'1615.7
2014-Sep-22 02:33N 42°41' E 005°35'1515.4
2014-Sep-22 01:33N 42°28' E 005°46'1615.5
2014-Sep-22 00:33N 42°14' E 005°56'1815.1
2014-Sep-21 23:24N 41°59' E 006°07'1315.0
2014-Sep-21 22:32N 41°47' E 006°15'1615.0
2014-Sep-21 21:30N 41°33' E 006°25'1515.2
2014-Sep-21 20:32N 41°20' E 006°34'1515.3
2014-Sep-21 19:32N 41°07' E 006°44'4615.5
2014-Sep-21 16:32N 40°26' E 007°13'6315.8
2014-Sep-21 12:33N 39°31' E 007°53'1615.7
2014-Sep-21 11:31N 39°17' E 008°03'1816.1
2014-Sep-21 10:24N 39°01' E 008°14'  
Track history (hours):
 
Tides and Currents Weather Stations Pressure Air Temp Water Temp Dewpoint Dewpoint Depression Visibility Wind Speed Wind Dir Waves Ship Positions

Tor Futura

Last reported at 2014-Oct-01 09:32 UTC. Time now 2014-Oct-01 10:21 UTC.
Position N 43°19' E 005°22'.

Length 183.1 m; beam 25.2 m; draft 7.8 m.

Type: Cargo ship. MMSI: 219927000.

Date/timePositionNaut miles runAvg speedWind from/ knotsBaromVisibWave heightAir tempDewpointWater temp
2014-Oct-01 09:32N 43°19' E 005°22'0 0.0
2014-Oct-01 08:26N 43°19' E 005°22'0 0.0
2014-Oct-01 07:05N 43°19' E 005°22'0 0.2
2014-Oct-01 06:31N 43°19' E 005°21'2 2.1
2014-Oct-01 05:33N 43°19' E 005°19'1111.4
2014-Oct-01 04:33N 43°08' E 005°16'1413.5
2014-Oct-01 03:33N 42°55' E 005°23'1414.4
2014-Oct-01 02:33N 42°43' E 005°32'1514.2
2014-Oct-01 01:32N 42°30' E 005°42'26814.6
2014-Sep-30 07:08N 38°39' E 008°41'914.8
2014-Sep-30 06:33N 38°33' E 008°50'23 0.7
2014-Sep-28 19:29N 38°15' E 009°07'2512.2
2014-Sep-28 17:26N 38°32' E 008°44'1212.4
2014-Sep-28 16:29N 38°41' E 008°34'1212.5
2014-Sep-28 15:32N 38°49' E 008°23'1212.1
2014-Sep-28 14:31N 38°60' E 008°15'1712.6
2014-Sep-28 13:10N 39°15' E 008°04'812.3
2014-Sep-28 12:31N 39°22' E 007°59'1312.4
2014-Sep-28 11:28N 39°33' E 007°51'12313.5
2014-Sep-28 02:21N 41°21' E 006°33'4012.8
2014-Sep-27 23:16N 41°56' E 006°07'1113.0
2014-Sep-27 22:26N 42°05' E 005°60'1112.7
2014-Sep-27 21:33N 42°15' E 005°52'1312.6
2014-Sep-27 20:33N 42°26' E 005°44'1313.2
2014-Sep-27 19:33N 42°37' E 005°35'1212.4
2014-Sep-27 18:33N 42°48' E 005°27'1512.5
2014-Sep-27 17:22N 43°01' E 005°17'1012.0
2014-Sep-27 16:30N 43°10' E 005°10'1010.5
2014-Sep-27 15:33N 43°20' E 005°15'5 4.7
2014-Sep-27 14:32N 43°19' E 005°22'0 0.0
2014-Sep-27 13:33N 43°19' E 005°22'0 0.0
2014-Sep-27 12:33N 43°19' E 005°22'0 0.0
2014-Sep-27 11:21N 43°19' E 005°22'0 0.0
2014-Sep-27 10:09N 43°19' E 005°22'0 0.0
2014-Sep-27 09:23N 43°19' E 005°22'0 0.0
2014-Sep-27 08:26N 43°19' E 005°22'0 0.0
2014-Sep-27 07:27N 43°19' E 005°22'0 0.0
2014-Sep-27 06:29N 43°19' E 005°22'0 0.0
2014-Sep-27 05:29N 43°19' E 005°22'1 0.7
2014-Sep-27 04:33N 43°20' E 005°21'9 9.4
2014-Sep-27 03:33N 43°14' E 005°11'1915.0
2014-Sep-27 02:16N 42°57' E 005°22'1115.4
2014-Sep-27 01:33N 42°47' E 005°30'1515.3
2014-Sep-27 00:33N 42°34' E 005°41'1514.8
2014-Sep-26 23:33N 42°21' E 005°49'1515.1
2014-Sep-26 22:33N 42°07' E 005°59'1515.2
2014-Sep-26 21:33N 41°54' E 006°09'15915.8
2014-Sep-26 11:30N 39°35' E 007°50'3515.5
2014-Sep-26 09:14N 39°04' E 008°12'1815.5
2014-Sep-26 08:03N 38°49' E 008°25'1215.0
2014-Sep-26 07:14N 38°41' E 008°37'63 1.7
2014-Sep-24 17:32N 37°55' E 009°33'1616.2
2014-Sep-24 16:33N 38°07' E 009°18'1616.1
2014-Sep-24 15:33N 38°18' E 009°04'2216.0
2014-Sep-24 14:10N 38°33' E 008°44'1115.9
2014-Sep-24 13:29N 38°41' E 008°34'2116.0
2014-Sep-24 12:12N 38°57' E 008°17'1116.1
2014-Sep-24 11:30N 39°07' E 008°10'1516.1
2014-Sep-24 10:33N 39°20' E 008°01'21916.3
2014-Sep-23 21:07N 42°31' E 005°40'1016.4
2014-Sep-23 20:33N 42°41' E 005°38'1615.8
2014-Sep-23 19:33N 42°52' E 005°24'2015.9
2014-Sep-23 18:17N 43°10' E 005°10'1013.9
2014-Sep-23 17:33N 43°20' E 005°15'5 0.6
2014-Sep-23 10:06N 43°19' E 005°22'0 0.0
2014-Sep-23 06:24N 43°19' E 005°22'0 0.0
2014-Sep-23 05:24N 43°19' E 005°22'0 0.0
2014-Sep-23 03:12N 43°19' E 005°22'0 0.0
2014-Sep-23 02:24N 43°19' E 005°22'0 0.0
2014-Sep-23 01:12N 43°19' E 005°22'0 0.0
2014-Sep-22 23:30N 43°19' E 005°22'0 0.0
2014-Sep-22 22:30N 43°19' E 005°22'0 0.0
2014-Sep-22 20:06N 43°19' E 005°22'0 0.0
2014-Sep-22 19:18N 43°19' E 005°22'0 0.0
2014-Sep-22 13:12N 43°19' E 005°22'0 0.0
2014-Sep-22 11:12N 43°19' E 005°22'0 0.0
2014-Sep-22 10:30N 43°19' E 005°22'0 0.0
2014-Sep-22 09:18N 43°19' E 005°22'0 0.0
2014-Sep-22 08:30N 43°19' E 005°22'0 0.0
2014-Sep-22 07:06N 43°19' E 005°22'0 0.1
2014-Sep-22 06:33N 43°19' E 005°22'4 4.2
2014-Sep-22 05:33N 43°19' E 005°16'1212.0
2014-Sep-22 04:32N 43°07' E 005°14'1515.1
2014-Sep-22 03:33N 42°54' E 005°24'1615.7
2014-Sep-22 02:33N 42°41' E 005°35'1515.4
2014-Sep-22 01:33N 42°28' E 005°46'1615.5
2014-Sep-22 00:33N 42°14' E 005°56'1815.1
2014-Sep-21 23:24N 41°59' E 006°07'1315.0
2014-Sep-21 22:32N 41°47' E 006°15'1615.0
2014-Sep-21 21:30N 41°33' E 006°25'1515.2
2014-Sep-21 20:32N 41°20' E 006°34'1515.3
2014-Sep-21 19:32N 41°07' E 006°44'4615.5
2014-Sep-21 16:32N 40°26' E 007°13'6315.8
2014-Sep-21 12:33N 39°31' E 007°53'1615.7
2014-Sep-21 11:31N 39°17' E 008°03'1816.1
2014-Sep-21 10:24N 39°01' E 008°14'  

Dump ship's entire track history